sensor_id;sensor_type;location;lat;lon;timestamp;pressure;altitude;pressure_sealevel;temperature;humidity
62725;BME280;49026;52.600;4.694;2023-01-31T00:01:22;102385.44;;;4.97;76.45
62725;BME280;49026;52.600;4.694;2023-01-31T00:03:52;102386.28;;;4.91;76.90
62725;BME280;49026;52.600;4.694;2023-01-31T00:06:20;102381.06;;;4.90;76.65
62725;BME280;49026;52.600;4.694;2023-01-31T00:08:48;102374.09;;;4.87;76.77
62725;BME280;49026;52.600;4.694;2023-01-31T00:11:15;102372.34;;;4.86;77.06
62725;BME280;49026;52.600;4.694;2023-01-31T00:13:41;102378.41;;;4.83;77.17
62725;BME280;49026;52.600;4.694;2023-01-31T00:16:10;102372.31;;;4.83;77.00
62725;BME280;49026;52.600;4.694;2023-01-31T00:18:37;102364.50;;;4.81;77.06
62725;BME280;49026;52.600;4.694;2023-01-31T00:21:14;102368.81;;;4.82;77.06
62725;BME280;49026;52.600;4.694;2023-01-31T00:23:41;102355.84;;;4.86;77.47
62725;BME280;49026;52.600;4.694;2023-01-31T00:26:08;102348.94;;;4.91;77.66
62725;BME280;49026;52.600;4.694;2023-01-31T00:28:33;102346.34;;;4.94;77.84
62725;BME280;49026;52.600;4.694;2023-01-31T00:31:02;102347.22;;;4.93;77.67
62725;BME280;49026;52.600;4.694;2023-01-31T00:33:27;102349.81;;;4.91;77.59
62725;BME280;49026;52.600;4.694;2023-01-31T00:35:52;102339.41;;;4.91;77.79
62725;BME280;49026;52.600;4.694;2023-01-31T00:38:18;102335.91;;;4.92;78.07
62725;BME280;49026;52.600;4.694;2023-01-31T00:40:51;102323.78;;;4.93;77.69
62725;BME280;49026;52.600;4.694;2023-01-31T00:43:16;102320.28;;;4.92;77.73
62725;BME280;49026;52.600;4.694;2023-01-31T00:45:44;102324.63;;;4.92;77.83
62725;BME280;49026;52.600;4.694;2023-01-31T00:48:09;102317.66;;;4.91;77.74
62725;BME280;49026;52.600;4.694;2023-01-31T00:50:34;102315.97;;;4.93;77.60
62725;BME280;49026;52.600;4.694;2023-01-31T00:53:03;102310.75;;;4.94;77.92
62725;BME280;49026;52.600;4.694;2023-01-31T00:55:35;102303.81;;;4.95;77.57
62725;BME280;49026;52.600;4.694;2023-01-31T00:58:00;102296.91;;;5.00;77.61
62725;BME280;49026;52.600;4.694;2023-01-31T01:00:25;102291.72;;;5.05;77.71
62725;BME280;49026;52.600;4.694;2023-01-31T01:02:53;102296.09;;;5.09;78.08
62725;BME280;49026;52.600;4.694;2023-01-31T01:05:20;102300.47;;;5.11;78.08
62725;BME280;49026;52.600;4.694;2023-01-31T01:07:46;102299.59;;;5.15;78.39
62725;BME280;49026;52.600;4.694;2023-01-31T01:10:11;102290.06;;;5.20;78.14
62725;BME280;49026;52.600;4.694;2023-01-31T01:12:37;102288.38;;;5.29;78.84
62725;BME280;49026;52.600;4.694;2023-01-31T01:15:03;102288.41;;;5.35;78.78
62725;BME280;49026;52.600;4.694;2023-01-31T01:17:28;102291.03;;;5.43;78.41
62725;BME280;49026;52.600;4.694;2023-01-31T01:19:59;102289.34;;;5.51;78.90
62725;BME280;49026;52.600;4.694;2023-01-31T01:22:28;102278.09;;;5.58;79.58
62725;BME280;49026;52.600;4.694;2023-01-31T01:24:56;102287.66;;;5.64;80.11
62725;BME280;49026;52.600;4.694;2023-01-31T01:27:21;102293.75;;;5.66;79.45
62725;BME280;49026;52.600;4.694;2023-01-31T01:29:47;102292.91;;;5.68;79.88
62725;BME280;49026;52.600;4.694;2023-01-31T01:32:15;102278.97;;;5.71;79.96
62725;BME280;49026;52.600;4.694;2023-01-31T01:34:43;102281.59;;;5.74;79.94
62725;BME280;49026;52.600;4.694;2023-01-31T01:37:11;102285.09;;;5.79;80.37
62725;BME280;49026;52.600;4.694;2023-01-31T01:39:50;102287.72;;;5.82;80.61
62725;BME280;49026;52.600;4.694;2023-01-31T01:42:18;102288.59;;;5.86;80.58
62725;BME280;49026;52.600;4.694;2023-01-31T01:47:41;102284.25;;;5.91;80.73
62725;BME280;49026;52.600;4.694;2023-01-31T01:53:01;102284.25;;;5.92;80.21
62725;BME280;49026;52.600;4.694;2023-01-31T01:55:37;102288.63;;;5.92;80.55
62725;BME280;49026;52.600;4.694;2023-01-31T01:58:11;102298.16;;;5.93;80.71
62725;BME280;49026;52.600;4.694;2023-01-31T02:00:38;102286.00;;;5.95;80.77
62725;BME280;49026;52.600;4.694;2023-01-31T02:03:05;102285.16;;;5.99;81.75
62725;BME280;49026;52.600;4.694;2023-01-31T02:05:38;102285.19;;;6.01;81.75
62725;BME280;49026;52.600;4.694;2023-01-31T02:08:07;102275.59;;;6.03;81.10
62725;BME280;49026;52.600;4.694;2023-01-31T02:10:44;102277.38;;;6.04;81.44
62725;BME280;49026;52.600;4.694;2023-01-31T02:13:16;102279.97;;;6.04;81.31
62725;BME280;49026;52.600;4.694;2023-01-31T02:15:42;102277.38;;;6.04;81.50
62725;BME280;49026;52.600;4.694;2023-01-31T02:18:08;102266.06;;;6.05;81.36
62725;BME280;49026;52.600;4.694;2023-01-31T02:23:41;102262.56;;;6.06;81.15
62725;BME280;49026;52.600;4.694;2023-01-31T02:37:32;102259.97;;;6.06;81.66
62725;BME280;49026;52.600;4.694;2023-01-31T02:45:38;102266.91;;;6.04;81.22
62725;BME280;49026;52.600;4.694;2023-01-31T02:48:16;102273.00;;;6.01;80.85
62725;BME280;49026;52.600;4.694;2023-01-31T02:55:51;102263.38;;;5.85;80.19
62725;BME280;49026;52.600;4.694;2023-01-31T02:58:37;102256.41;;;5.84;80.64
62725;BME280;49026;52.600;4.694;2023-01-31T03:01:04;102239.88;;;5.79;80.62
62725;BME280;49026;52.600;4.694;2023-01-31T03:03:34;102242.47;;;5.72;80.15
62725;BME280;49026;52.600;4.694;2023-01-31T03:08:50;102225.94;;;5.66;80.33
62725;BME280;49026;52.600;4.694;2023-01-31T03:11:16;102235.50;;;5.62;80.61
62725;BME280;49026;52.600;4.694;2023-01-31T03:16:42;102227.66;;;5.51;80.46
62725;BME280;49026;52.600;4.694;2023-01-31T03:19:35;102229.38;;;5.51;80.99
62725;BME280;49026;52.600;4.694;2023-01-31T03:22:08;102225.03;;;5.48;80.42
62725;BME280;49026;52.600;4.694;2023-01-31T03:24:43;102220.69;;;5.50;81.17
62725;BME280;49026;52.600;4.694;2023-01-31T03:27:09;102231.13;;;5.53;80.83
62725;BME280;49026;52.600;4.694;2023-01-31T03:29:36;102218.97;;;5.55;81.53
62725;BME280;49026;52.600;4.694;2023-01-31T03:32:19;102212.88;;;5.55;81.35
62725;BME280;49026;52.600;4.694;2023-01-31T03:34:48;102217.22;;;5.57;81.58
62725;BME280;49026;52.600;4.694;2023-01-31T03:37:49;102211.16;;;5.60;81.54
62725;BME280;49026;52.600;4.694;2023-01-31T03:40:16;102198.13;;;5.65;81.48
62725;BME280;49026;52.600;4.694;2023-01-31T03:42:53;102205.94;;;5.68;82.04
62725;BME280;49026;52.600;4.694;2023-01-31T03:45:33;102196.41;;;5.71;81.95
62725;BME280;49026;52.600;4.694;2023-01-31T03:48:01;102190.31;;;5.75;81.95
62725;BME280;49026;52.600;4.694;2023-01-31T03:50:32;102199.00;;;5.79;82.42
62725;BME280;49026;52.600;4.694;2023-01-31T03:53:14;102199.88;;;5.81;82.38
62725;BME280;49026;52.600;4.694;2023-01-31T03:56:00;102184.22;;;5.84;82.28
62725;BME280;49026;52.600;4.694;2023-01-31T03:58:29;102192.94;;;5.89;82.61
62725;BME280;49026;52.600;4.694;2023-01-31T04:00:58;102189.47;;;5.90;82.19
62725;BME280;49026;52.600;4.694;2023-01-31T04:03:33;102192.94;;;5.92;82.29
62725;BME280;49026;52.600;4.694;2023-01-31T04:06:00;102178.16;;;5.93;82.05
62725;BME280;49026;52.600;4.694;2023-01-31T04:08:25;102181.66;;;5.95;82.06
62725;BME280;49026;52.600;4.694;2023-01-31T04:10:53;102182.50;;;5.96;82.05
62725;BME280;49026;52.600;4.694;2023-01-31T04:13:19;102179.91;;;5.96;81.95
62725;BME280;49026;52.600;4.694;2023-01-31T04:15:46;102174.69;;;5.96;82.13
62725;BME280;49026;52.600;4.694;2023-01-31T04:18:14;102174.72;;;5.99;82.79
62725;BME280;49026;52.600;4.694;2023-01-31T04:20:39;102171.25;;;5.98;81.81
62725;BME280;49026;52.600;4.694;2023-01-31T04:23:04;102161.69;;;5.99;82.44
62725;BME280;49026;52.600;4.694;2023-01-31T04:25:29;102171.25;;;5.97;82.18
62725;BME280;49026;52.600;4.694;2023-01-31T04:27:55;102166.88;;;5.97;82.18
62725;BME280;49026;52.600;4.694;2023-01-31T04:30:20;102162.53;;;5.96;82.25
62725;BME280;49026;52.600;4.694;2023-01-31T04:32:48;102163.41;;;5.97;82.14
62725;BME280;49026;52.600;4.694;2023-01-31T04:35:13;102168.63;;;5.97;81.93
62725;BME280;49026;52.600;4.694;2023-01-31T04:37:38;102170.34;;;5.98;81.72
62725;BME280;49026;52.600;4.694;2023-01-31T04:40:07;102161.63;;;5.96;82.05
62725;BME280;49026;52.600;4.694;2023-01-31T04:42:35;102153.81;;;5.96;82.01
62725;BME280;49026;52.600;4.694;2023-01-31T04:45:00;102158.19;;;5.97;82.18
62725;BME280;49026;52.600;4.694;2023-01-31T04:47:26;102158.19;;;6.01;82.00
62725;BME280;49026;52.600;4.694;2023-01-31T04:49:51;102160.78;;;6.01;82.38
62725;BME280;49026;52.600;4.694;2023-01-31T04:52:16;102146.88;;;6.02;82.37
62725;BME280;49026;52.600;4.694;2023-01-31T04:54:41;102147.75;;;6.03;82.03
62725;BME280;49026;52.600;4.694;2023-01-31T04:57:07;102158.19;;;6.06;82.01
62725;BME280;49026;52.600;4.694;2023-01-31T04:59:32;102154.72;;;6.07;81.70
62725;BME280;49026;52.600;4.694;2023-01-31T05:02:00;102147.75;;;6.10;82.05
62725;BME280;49026;52.600;4.694;2023-01-31T05:04:25;102152.13;;;6.11;82.39
62725;BME280;49026;52.600;4.694;2023-01-31T05:06:50;102148.63;;;6.11;81.47
62725;BME280;49026;52.600;4.694;2023-01-31T05:09:16;102143.41;;;6.03;81.66
62725;BME280;49026;52.600;4.694;2023-01-31T05:11:42;102146.03;;;6.02;82.38
62725;BME280;49026;52.600;4.694;2023-01-31T05:14:07;102139.91;;;6.06;82.46
62725;BME280;49026;52.600;4.694;2023-01-31T05:16:32;102139.94;;;6.12;81.98
62725;BME280;49026;52.600;4.694;2023-01-31T05:18:58;102128.59;;;6.19;82.58
62725;BME280;49026;52.600;4.694;2023-01-31T05:21:23;102121.63;;;6.23;82.25
62725;BME280;49026;52.600;4.694;2023-01-31T05:23:49;102117.28;;;6.25;81.94
62725;BME280;49026;52.600;4.694;2023-01-31T05:26:17;102119.88;;;6.26;81.63
62725;BME280;49026;52.600;4.694;2023-01-31T05:28:44;102115.53;;;6.18;81.62
62725;BME280;49026;52.600;4.694;2023-01-31T05:31:10;102119.03;;;6.06;81.94
62725;BME280;49026;52.600;4.694;2023-01-31T05:33:37;102116.41;;;5.93;82.04
62725;BME280;49026;52.600;4.694;2023-01-31T05:36:02;102103.38;;;5.89;82.52
62725;BME280;49026;52.600;4.694;2023-01-31T05:38:28;102097.28;;;5.87;82.75
62725;BME280;49026;52.600;4.694;2023-01-31T05:40:53;102108.59;;;5.90;82.90
62725;BME280;49026;52.600;4.694;2023-01-31T05:43:18;102100.81;;;5.97;82.51
62725;BME280;49026;52.600;4.694;2023-01-31T05:45:46;102092.94;;;6.06;81.99
62725;BME280;49026;52.600;4.694;2023-01-31T05:48:11;102098.16;;;6.14;82.28
62725;BME280;49026;52.600;4.694;2023-01-31T05:50:37;102103.38;;;6.14;81.90
62725;BME280;49026;52.600;4.694;2023-01-31T05:53:02;102095.56;;;6.12;82.12
62725;BME280;49026;52.600;4.694;2023-01-31T05:55:30;102101.63;;;6.09;82.08
62725;BME280;49026;52.600;4.694;2023-01-31T05:57:55;102107.75;;;6.10;82.52
62725;BME280;49026;52.600;4.694;2023-01-31T06:00:23;102107.75;;;6.10;82.88
62725;BME280;49026;52.600;4.694;2023-01-31T06:02:49;102108.59;;;6.14;82.37
62725;BME280;49026;52.600;4.694;2023-01-31T06:05:14;102102.50;;;6.15;82.39
62725;BME280;49026;52.600;4.694;2023-01-31T06:07:40;102088.59;;;6.17;82.62
62725;BME280;49026;52.600;4.694;2023-01-31T06:10:06;102096.41;;;6.08;81.91
62725;BME280;49026;52.600;4.694;2023-01-31T06:12:32;102099.88;;;5.94;82.35
62725;BME280;49026;52.600;4.694;2023-01-31T06:14:59;102092.91;;;5.80;82.90
62725;BME280;49026;52.600;4.694;2023-01-31T06:17:24;102085.09;;;5.64;83.43
62725;BME280;49026;52.600;4.694;2023-01-31T06:19:49;102087.72;;;5.55;83.67
62725;BME280;49026;52.600;4.694;2023-01-31T06:22:20;102073.81;;;5.42;84.57
62725;BME280;49026;52.600;4.694;2023-01-31T06:24:45;102052.06;;;5.31;84.58
62725;BME280;49026;52.600;4.694;2023-01-31T06:27:11;102041.63;;;5.22;84.64
62725;BME280;49026;52.600;4.694;2023-01-31T06:29:36;102048.59;;;5.18;85.05
62725;BME280;49026;52.600;4.694;2023-01-31T06:32:02;102048.56;;;5.15;85.00
62725;BME280;49026;52.600;4.694;2023-01-31T06:34:27;102054.66;;;5.15;85.35
62725;BME280;49026;52.600;4.694;2023-01-31T06:36:55;102051.19;;;5.15;85.22
62725;BME280;49026;52.600;4.694;2023-01-31T06:39:20;102053.78;;;5.15;84.99
62725;BME280;49026;52.600;4.694;2023-01-31T06:41:45;102057.25;;;5.12;85.41
62725;BME280;49026;52.600;4.694;2023-01-31T06:44:11;102059.00;;;5.13;85.13
62725;BME280;49026;52.600;4.694;2023-01-31T06:46:36;102043.38;;;5.16;85.13
62725;BME280;49026;52.600;4.694;2023-01-31T06:49:04;102035.53;;;5.23;85.60
62725;BME280;49026;52.600;4.694;2023-01-31T06:51:32;102050.31;;;5.22;85.57
62725;BME280;49026;52.600;4.694;2023-01-31T06:53:57;102048.56;;;5.24;85.65
62725;BME280;49026;52.600;4.694;2023-01-31T06:56:23;102037.28;;;5.22;85.89
62725;BME280;49026;52.600;4.694;2023-01-31T06:58:51;102039.00;;;5.14;86.24
62725;BME280;49026;52.600;4.694;2023-01-31T07:01:18;102042.47;;;5.14;85.78
62725;BME280;49026;52.600;4.694;2023-01-31T07:03:46;102016.41;;;5.16;86.01
62725;BME280;49026;52.600;4.694;2023-01-31T07:06:12;102033.81;;;5.20;86.28
62725;BME280;49026;52.600;4.694;2023-01-31T07:08:42;102033.81;;;5.23;85.88
62725;BME280;49026;52.600;4.694;2023-01-31T07:11:07;102029.50;;;5.30;86.17
62725;BME280;49026;52.600;4.694;2023-01-31T07:13:32;102020.78;;;5.31;85.85
62725;BME280;49026;52.600;4.694;2023-01-31T07:15:58;102005.16;;;5.37;85.74
62725;BME280;49026;52.600;4.694;2023-01-31T07:18:26;102014.69;;;5.41;85.53
62725;BME280;49026;52.600;4.694;2023-01-31T07:20:51;102013.84;;;5.45;85.50
62725;BME280;49026;52.600;4.694;2023-01-31T07:23:16;102005.16;;;5.43;84.99
62725;BME280;49026;52.600;4.694;2023-01-31T07:25:44;102013.00;;;5.45;85.25
62725;BME280;49026;52.600;4.694;2023-01-31T07:28:10;102026.03;;;5.45;85.34
62725;BME280;49026;52.600;4.694;2023-01-31T07:30:36;102031.22;;;5.43;85.34
62725;BME280;49026;52.600;4.694;2023-01-31T07:33:04;102013.00;;;5.45;85.32
62725;BME280;49026;52.600;4.694;2023-01-31T07:35:32;102017.31;;;5.44;85.15
62725;BME280;49026;52.600;4.694;2023-01-31T07:38:00;102012.97;;;5.43;85.19
62725;BME280;49026;52.600;4.694;2023-01-31T07:40:25;102009.50;;;5.43;85.02
62725;BME280;49026;52.600;4.694;2023-01-31T07:42:59;102012.97;;;5.48;85.35
62725;BME280;49026;52.600;4.694;2023-01-31T07:45:25;101993.84;;;5.49;85.54
62725;BME280;49026;52.600;4.694;2023-01-31T07:47:51;102003.41;;;5.54;85.36
62725;BME280;49026;52.600;4.694;2023-01-31T07:50:17;102008.63;;;5.61;85.77
62725;BME280;49026;52.600;4.694;2023-01-31T07:52:43;102012.97;;;5.63;85.30
62725;BME280;49026;52.600;4.694;2023-01-31T07:55:08;102002.50;;;5.69;85.62
62725;BME280;49026;52.600;4.694;2023-01-31T07:57:34;101994.69;;;5.74;85.47
62725;BME280;49026;52.600;4.694;2023-01-31T08:00:04;102000.78;;;5.79;86.18
62725;BME280;49026;52.600;4.694;2023-01-31T08:02:49;102002.47;;;5.88;85.80
62725;BME280;49026;52.600;4.694;2023-01-31T08:05:33;102008.59;;;5.98;86.30
62725;BME280;49026;52.600;4.694;2023-01-31T08:08:01;101994.69;;;6.02;85.85
62725;BME280;49026;52.600;4.694;2023-01-31T08:10:34;101963.38;;;6.05;85.80
62725;BME280;49026;52.600;4.694;2023-01-31T08:13:03;101985.97;;;6.06;86.24
62725;BME280;49026;52.600;4.694;2023-01-31T08:15:28;101994.66;;;6.08;86.07
62725;BME280;49026;52.600;4.694;2023-01-31T08:17:53;101978.97;;;6.11;85.72
62725;BME280;49026;52.600;4.694;2023-01-31T08:20:22;101984.19;;;6.14;86.00
62725;BME280;49026;52.600;4.694;2023-01-31T08:22:49;101982.44;;;6.19;85.51
62725;BME280;49026;52.600;4.694;2023-01-31T08:25:14;101976.28;;;6.33;85.81
62725;BME280;49026;52.600;4.694;2023-01-31T08:27:40;101978.03;;;6.38;86.73
62725;BME280;49026;52.600;4.694;2023-01-31T08:30:06;101965.75;;;6.51;85.87
62725;BME280;49026;52.600;4.694;2023-01-31T08:32:31;101967.44;;;6.63;86.34
62725;BME280;49026;52.600;4.694;2023-01-31T08:34:57;101953.41;;;6.76;85.86
62725;BME280;49026;52.600;4.694;2023-01-31T08:37:22;101946.44;;;6.80;85.76
62725;BME280;49026;52.600;4.694;2023-01-31T08:39:47;101916.03;;;6.70;86.26
62725;BME280;49026;52.600;4.694;2023-01-31T08:42:12;101956.13;;;6.65;86.47
62725;BME280;49026;52.600;4.694;2023-01-31T08:44:41;101948.25;;;6.70;86.14
62725;BME280;49026;52.600;4.694;2023-01-31T08:47:10;101948.16;;;6.85;86.27
62725;BME280;49026;52.600;4.694;2023-01-31T08:49:35;101921.06;;;6.94;85.96
62725;BME280;49026;52.600;4.694;2023-01-31T08:52:01;101932.38;;;6.96;85.49
62725;BME280;49026;52.600;4.694;2023-01-31T08:54:28;101933.25;;;6.98;86.21
62725;BME280;49026;52.600;4.694;2023-01-31T08:56:53;101935.91;;;6.94;86.02
62725;BME280;49026;52.600;4.694;2023-01-31T08:59:19;101945.44;;;6.95;86.11
62725;BME280;49026;52.600;4.694;2023-01-31T09:01:44;101939.25;;;7.10;85.75
62725;BME280;49026;52.600;4.694;2023-01-31T09:04:10;101940.88;;;7.23;86.06
62725;BME280;49026;52.600;4.694;2023-01-31T09:06:36;101909.41;;;7.37;86.38
62725;BME280;49026;52.600;4.694;2023-01-31T09:09:01;101935.38;;;7.54;85.86
62725;BME280;49026;52.600;4.694;2023-01-31T09:11:28;101925.72;;;7.62;86.22
62725;BME280;49026;52.600;4.694;2023-01-31T09:13:54;101936.22;;;7.56;85.52
62725;BME280;49026;52.600;4.694;2023-01-31T09:16:20;101933.75;;;7.44;85.50
62725;BME280;49026;52.600;4.694;2023-01-31T09:18:46;101938.19;;;7.35;85.74
62725;BME280;49026;52.600;4.694;2023-01-31T09:21:17;101926.03;;;7.27;86.16
62725;BME280;49026;52.600;4.694;2023-01-31T09:23:43;101928.75;;;7.16;86.15
62725;BME280;49026;52.600;4.694;2023-01-31T09:26:11;101935.81;;;7.03;86.35
62725;BME280;49026;52.600;4.694;2023-01-31T09:28:37;101922.81;;;6.95;86.75
62725;BME280;49026;52.600;4.694;2023-01-31T09:31:11;101936.78;;;6.88;86.14
62725;BME280;49026;52.600;4.694;2023-01-31T09:33:37;101934.19;;;6.86;86.81
62725;BME280;49026;52.600;4.694;2023-01-31T09:36:07;101932.47;;;6.87;86.54
62725;BME280;49026;52.600;4.694;2023-01-31T09:38:33;101925.44;;;6.94;86.67
62725;BME280;49026;52.600;4.694;2023-01-31T09:41:03;101921.91;;;6.99;86.46
62725;BME280;49026;52.600;4.694;2023-01-31T09:43:32;101920.97;;;7.07;85.77
62725;BME280;49026;52.600;4.694;2023-01-31T09:46:01;101923.56;;;7.08;86.90
62725;BME280;49026;52.600;4.694;2023-01-31T09:48:31;101925.28;;;7.12;86.52
62725;BME280;49026;52.600;4.694;2023-01-31T09:51:00;101897.38;;;7.17;86.34
62725;BME280;49026;52.600;4.694;2023-01-31T09:53:32;101934.78;;;7.24;86.47
62725;BME280;49026;52.600;4.694;2023-01-31T09:56:30;101918.97;;;7.36;86.83
62725;BME280;49026;52.600;4.694;2023-01-31T09:59:36;101929.34;;;7.46;86.81
62725;BME280;49026;52.600;4.694;2023-01-31T10:05:27;101928.09;;;7.82;86.34
62725;BME280;49026;52.600;4.694;2023-01-31T10:08:16;101920.13;;;7.93;85.98
62725;BME280;49026;52.600;4.694;2023-01-31T10:10:50;101927.94;;;7.94;86.18
62725;BME280;49026;52.600;4.694;2023-01-31T10:13:27;101931.44;;;7.93;85.30
62725;BME280;49026;52.600;4.694;2023-01-31T10:16:02;101916.63;;;7.94;85.60
62725;BME280;49026;52.600;4.694;2023-01-31T10:18:38;101935.78;;;7.96;85.02
62725;BME280;49026;52.600;4.694;2023-01-31T10:21:09;101932.31;;;7.97;85.03
62725;BME280;49026;52.600;4.694;2023-01-31T10:23:49;101952.31;;;8.00;84.42
62725;BME280;49026;52.600;4.694;2023-01-31T10:26:22;101951.50;;;7.94;85.06
62725;BME280;49026;52.600;4.694;2023-01-31T10:28:59;101958.56;;;7.88;85.26
62725;BME280;49026;52.600;4.694;2023-01-31T10:34:20;101954.34;;;7.74;85.04
62725;BME280;49026;52.600;4.694;2023-01-31T10:36:52;101964.88;;;7.67;85.15
62725;BME280;49026;52.600;4.694;2023-01-31T10:39:41;101959.72;;;7.62;84.58
62725;BME280;49026;52.600;4.694;2023-01-31T10:42:20;101956.16;;;7.66;85.16
62725;BME280;49026;52.600;4.694;2023-01-31T10:44:54;101963.03;;;7.76;85.35
62725;BME280;49026;52.600;4.694;2023-01-31T10:47:48;101968.19;;;7.84;84.83
62725;BME280;49026;52.600;4.694;2023-01-31T10:56:07;101965.75;;;8.45;84.61
62725;BME280;49026;52.600;4.694;2023-01-31T10:58:37;101960.50;;;8.46;84.54
62725;BME280;49026;52.600;4.694;2023-01-31T11:01:04;101970.16;;;8.41;84.22
62725;BME280;49026;52.600;4.694;2023-01-31T11:03:35;101956.28;;;8.31;83.80
62725;BME280;49026;52.600;4.694;2023-01-31T11:06:00;101962.56;;;8.20;83.83
62725;BME280;49026;52.600;4.694;2023-01-31T11:11:17;101966.00;;;8.22;84.06
62725;BME280;49026;52.600;4.694;2023-01-31T11:14:03;101953.84;;;8.18;84.53
62725;BME280;49026;52.600;4.694;2023-01-31T11:16:33;101946.00;;;8.18;84.01
62725;BME280;49026;52.600;4.694;2023-01-31T11:19:04;101930.16;;;8.27;83.22
62725;BME280;49026;52.600;4.694;2023-01-31T11:21:37;101943.59;;;8.69;83.49
62725;BME280;49026;52.600;4.694;2023-01-31T11:24:19;101936.47;;;9.32;82.55
62725;BME280;49026;52.600;4.694;2023-01-31T11:26:53;101934.19;;;9.61;81.77
62725;BME280;49026;52.600;4.694;2023-01-31T11:29:27;101919.75;;;9.86;80.60
62725;BME280;49026;52.600;4.694;2023-01-31T11:31:54;101916.94;;;10.37;79.89
62725;BME280;49026;52.600;4.694;2023-01-31T11:34:21;101898.66;;;10.71;78.31
62725;BME280;49026;52.600;4.694;2023-01-31T11:36:47;101920.44;;;10.77;78.14
62725;BME280;49026;52.600;4.694;2023-01-31T11:39:26;101919.25;;;10.90;77.91
62725;BME280;49026;52.600;4.694;2023-01-31T11:41:54;101904.78;;;11.08;78.04
62725;BME280;49026;52.600;4.694;2023-01-31T11:44:23;101902.59;;;11.24;77.71
62725;BME280;49026;52.600;4.694;2023-01-31T11:46:56;101893.59;;;11.32;75.99
62725;BME280;49026;52.600;4.694;2023-01-31T11:49:29;101889.09;;;11.38;76.64
62725;BME280;49026;52.600;4.694;2023-01-31T11:51:59;101899.47;;;11.42;76.64
62725;BME280;49026;52.600;4.694;2023-01-31T11:54:28;101879.81;;;11.56;76.23
62725;BME280;49026;52.600;4.694;2023-01-31T11:56:55;101891.13;;;11.59;74.22
62725;BME280;49026;52.600;4.694;2023-01-31T11:59:26;101886.97;;;11.50;74.50
62725;BME280;49026;52.600;4.694;2023-01-31T12:01:55;101881.75;;;11.49;74.35
62725;BME280;49026;52.600;4.694;2023-01-31T12:04:40;101898.50;;;10.78;74.99
62725;BME280;49026;52.600;4.694;2023-01-31T12:07:23;101885.56;;;9.87;76.01
62725;BME280;49026;52.600;4.694;2023-01-31T12:09:48;101887.41;;;9.37;78.10
62725;BME280;49026;52.600;4.694;2023-01-31T12:12:27;101888.75;;;9.11;79.04
62725;BME280;49026;52.600;4.694;2023-01-31T12:15:01;101887.25;;;8.98;79.67
62725;BME280;49026;52.600;4.694;2023-01-31T12:17:29;101890.78;;;8.94;79.64
62725;BME280;49026;52.600;4.694;2023-01-31T12:20:10;101876.88;;;8.88;80.31
62725;BME280;49026;52.600;4.694;2023-01-31T12:25:15;101882.44;;;8.70;80.56
62725;BME280;49026;52.600;4.694;2023-01-31T12:41:51;101850.31;;;8.59;81.33
62725;BME280;49026;52.600;4.694;2023-01-31T12:52:19;101850.06;;;8.74;80.70
62725;BME280;49026;52.600;4.694;2023-01-31T12:54:51;101855.53;;;9.12;80.40
62725;BME280;49026;52.600;4.694;2023-01-31T13:03:30;101858.38;;;11.05;75.96
62725;BME280;49026;52.600;4.694;2023-01-31T13:08:31;101843.84;;;11.56;74.84
62725;BME280;49026;52.600;4.694;2023-01-31T13:11:06;101872.06;;;11.82;73.93
62725;BME280;49026;52.600;4.694;2023-01-31T13:13:49;101860.69;;;11.80;73.73
62725;BME280;49026;52.600;4.694;2023-01-31T13:16:33;101860.88;;;11.74;73.94
62725;BME280;49026;52.600;4.694;2023-01-31T13:19:02;101867.88;;;11.75;74.03
62725;BME280;49026;52.600;4.694;2023-01-31T13:21:35;101875.09;;;11.68;72.83
62725;BME280;49026;52.600;4.694;2023-01-31T13:24:13;101887.53;;;11.63;73.37
62725;BME280;49026;52.600;4.694;2023-01-31T13:26:46;101881.28;;;11.66;73.33
62725;BME280;49026;52.600;4.694;2023-01-31T13:29:30;101882.13;;;11.68;73.31
62725;BME280;49026;52.600;4.694;2023-01-31T13:32:38;101883.06;;;11.65;72.89
62725;BME280;49026;52.600;4.694;2023-01-31T13:35:27;101884.19;;;11.57;72.78
62725;BME280;49026;52.600;4.694;2023-01-31T13:37:59;101900.19;;;11.49;72.20
62725;BME280;49026;52.600;4.694;2023-01-31T13:40:31;101904.59;;;11.48;72.45
62725;BME280;49026;52.600;4.694;2023-01-31T13:43:01;101901.50;;;11.65;72.65
62725;BME280;49026;52.600;4.694;2023-01-31T13:45:40;101901.25;;;11.75;71.92
62725;BME280;49026;52.600;4.694;2023-01-31T13:48:19;101911.47;;;11.85;71.69
62725;BME280;49026;52.600;4.694;2023-01-31T13:50:54;101911.00;;;11.71;71.40
62725;BME280;49026;52.600;4.694;2023-01-31T13:53:27;101911.19;;;11.65;71.48
62725;BME280;49026;52.600;4.694;2023-01-31T13:55:54;101924.19;;;11.71;71.54
62725;BME280;49026;52.600;4.694;2023-01-31T13:58:26;101925.19;;;11.65;70.65
62725;BME280;49026;52.600;4.694;2023-01-31T14:00:58;101930.84;;;11.52;71.33
62725;BME280;49026;52.600;4.694;2023-01-31T14:03:26;101932.81;;;11.43;71.70
62725;BME280;49026;52.600;4.694;2023-01-31T14:05:57;101922.00;;;11.53;71.35
62725;BME280;49026;52.600;4.694;2023-01-31T14:10:57;101911.91;;;11.70;70.35
62725;BME280;49026;52.600;4.694;2023-01-31T14:13:28;101920.53;;;11.42;70.20
62725;BME280;49026;52.600;4.694;2023-01-31T14:16:01;101926.06;;;11.33;70.81
62725;BME280;49026;52.600;4.694;2023-01-31T14:24:03;101932.41;;;10.52;70.99
62725;BME280;49026;52.600;4.694;2023-01-31T14:29:20;101938.25;;;9.31;74.22
62725;BME280;49026;52.600;4.694;2023-01-31T14:31:47;101942.06;;;9.12;75.52
62725;BME280;49026;52.600;4.694;2023-01-31T14:34:20;101946.22;;;9.23;76.33
62725;BME280;49026;52.600;4.694;2023-01-31T14:44:58;101942.19;;;9.55;75.10
62725;BME280;49026;52.600;4.694;2023-01-31T14:56:21;101943.72;;;9.19;75.55
62725;BME280;49026;52.600;4.694;2023-01-31T14:58:51;101953.56;;;9.04;76.19
62725;BME280;49026;52.600;4.694;2023-01-31T15:01:19;101955.53;;;8.88;76.82
62725;BME280;49026;52.600;4.694;2023-01-31T15:03:50;101959.97;;;8.83;76.85
62725;BME280;49026;52.600;4.694;2023-01-31T15:06:26;101960.91;;;8.79;76.98